Kettleman City, California
Current Conditions -  °F | °C
As of 3:56 PM on Wednesday 22 Oct 2014 (Local Time) from KNLC Reporting Station
Broken Clouds Broken Clouds  
Wind Chill: 76°   Ceiling: 20000
Heat Index: 76°   Visibility: 10mi
Dew Point: 38°   Wind: 12mph
Humidity: 25%   Direction: 340°NNW
Pressure: 30.01"   Gusts: NA
Location:  36.01°N, 119.96°W
Report Text: KNLC 222256Z 34010KT 10SM BKN200 BKN250 24/03 A3001 RMK AO2 SLP161 RH/24 T02440033
Loading
Personal Weather Stations






























Interactive Weather Map
Tropical Storm Tracking
New forecast layout! Learn more

10-Day Weather Forecast

Advertisements
Track Severe Weather on mobile